sensor_id;sensor_type;location;lat;lon;timestamp;P1;durP1;ratioP1;P2;durP2;ratioP2
71207;SDS011;58938;49.868;8.646;2023-11-21T00:01:17;8.98;;;2.60;;
71207;SDS011;58938;49.868;8.646;2023-11-21T00:03:43;8.10;;;2.08;;
71207;SDS011;58938;49.868;8.646;2023-11-21T00:06:09;7.50;;;3.08;;
71207;SDS011;58938;49.868;8.646;2023-11-21T00:08:36;7.67;;;2.47;;
71207;SDS011;58938;49.868;8.646;2023-11-21T00:11:02;5.95;;;3.00;;
71207;SDS011;58938;49.868;8.646;2023-11-21T00:13:30;7.40;;;2.47;;
71207;SDS011;58938;49.868;8.646;2023-11-21T00:15:56;5.28;;;2.72;;
71207;SDS011;58938;49.868;8.646;2023-11-21T00:18:22;6.63;;;2.80;;
71207;SDS011;58938;49.868;8.646;2023-11-21T00:20:48;5.90;;;2.67;;
71207;SDS011;58938;49.868;8.646;2023-11-21T00:23:14;7.68;;;2.42;;
71207;SDS011;58938;49.868;8.646;2023-11-21T00:25:40;8.27;;;3.33;;
71207;SDS011;58938;49.868;8.646;2023-11-21T00:28:05;8.30;;;3.50;;
71207;SDS011;58938;49.868;8.646;2023-11-21T00:30:31;6.22;;;2.80;;
71207;SDS011;58938;49.868;8.646;2023-11-21T00:32:58;8.80;;;2.83;;
71207;SDS011;58938;49.868;8.646;2023-11-21T00:35:24;8.30;;;2.60;;
71207;SDS011;58938;49.868;8.646;2023-11-21T00:37:50;7.50;;;3.17;;
71207;SDS011;58938;49.868;8.646;2023-11-21T00:40:16;7.80;;;3.25;;
71207;SDS011;58938;49.868;8.646;2023-11-21T00:42:44;8.95;;;3.00;;
71207;SDS011;58938;49.868;8.646;2023-11-21T00:45:11;8.47;;;3.07;;
71207;SDS011;58938;49.868;8.646;2023-11-21T00:47:37;8.88;;;2.70;;
71207;SDS011;58938;49.868;8.646;2023-11-21T00:50:03;7.78;;;3.10;;
71207;SDS011;58938;49.868;8.646;2023-11-21T00:52:31;6.45;;;3.20;;
71207;SDS011;58938;49.868;8.646;2023-11-21T00:54:57;6.57;;;3.20;;
71207;SDS011;58938;49.868;8.646;2023-11-21T00:57:25;8.33;;;2.63;;
71207;SDS011;58938;49.868;8.646;2023-11-21T00:59:51;7.03;;;2.90;;
71207;SDS011;58938;49.868;8.646;2023-11-21T01:02:17;6.82;;;2.72;;
71207;SDS011;58938;49.868;8.646;2023-11-21T01:04:43;10.18;;;2.88;;
71207;SDS011;58938;49.868;8.646;2023-11-21T01:07:09;6.40;;;3.27;;
71207;SDS011;58938;49.868;8.646;2023-11-21T01:09:35;6.35;;;2.90;;
71207;SDS011;58938;49.868;8.646;2023-11-21T01:12:01;7.32;;;3.53;;
71207;SDS011;58938;49.868;8.646;2023-11-21T01:14:27;7.53;;;3.17;;
71207;SDS011;58938;49.868;8.646;2023-11-21T01:16:53;6.73;;;3.67;;
71207;SDS011;58938;49.868;8.646;2023-11-21T01:19:19;7.43;;;3.33;;
71207;SDS011;58938;49.868;8.646;2023-11-21T01:21:45;7.43;;;3.33;;
71207;SDS011;58938;49.868;8.646;2023-11-21T01:24:12;7.13;;;3.67;;
71207;SDS011;58938;49.868;8.646;2023-11-21T01:26:38;9.40;;;3.83;;
71207;SDS011;58938;49.868;8.646;2023-11-21T01:29:03;7.60;;;3.80;;
71207;SDS011;58938;49.868;8.646;2023-11-21T01:31:30;7.72;;;4.35;;
71207;SDS011;58938;49.868;8.646;2023-11-21T01:33:56;10.60;;;4.18;;
71207;SDS011;58938;49.868;8.646;2023-11-21T01:36:22;9.40;;;4.73;;
71207;SDS011;58938;49.868;8.646;2023-11-21T01:38:48;8.48;;;3.88;;
71207;SDS011;58938;49.868;8.646;2023-11-21T01:41:14;11.30;;;4.43;;
71207;SDS011;58938;49.868;8.646;2023-11-21T01:43:40;7.90;;;4.05;;
71207;SDS011;58938;49.868;8.646;2023-11-21T01:46:07;11.77;;;4.68;;
71207;SDS011;58938;49.868;8.646;2023-11-21T01:48:33;10.17;;;4.67;;
71207;SDS011;58938;49.868;8.646;2023-11-21T01:51:00;7.90;;;4.47;;
71207;SDS011;58938;49.868;8.646;2023-11-21T01:53:26;12.82;;;5.05;;
71207;SDS011;58938;49.868;8.646;2023-11-21T01:55:53;8.85;;;4.57;;
71207;SDS011;58938;49.868;8.646;2023-11-21T01:58:19;12.43;;;5.07;;
71207;SDS011;58938;49.868;8.646;2023-11-21T02:00:45;9.90;;;4.30;;
71207;SDS011;58938;49.868;8.646;2023-11-21T02:03:11;14.18;;;4.70;;
71207;SDS011;58938;49.868;8.646;2023-11-21T02:05:37;8.57;;;4.40;;
71207;SDS011;58938;49.868;8.646;2023-11-21T02:08:03;11.15;;;4.65;;
71207;SDS011;58938;49.868;8.646;2023-11-21T02:10:30;10.10;;;4.10;;
71207;SDS011;58938;49.868;8.646;2023-11-21T02:12:56;8.98;;;4.72;;
71207;SDS011;58938;49.868;8.646;2023-11-21T02:15:23;8.35;;;4.35;;
71207;SDS011;58938;49.868;8.646;2023-11-21T02:17:53;9.07;;;3.97;;
71207;SDS011;58938;49.868;8.646;2023-11-21T02:20:20;9.13;;;4.57;;
71207;SDS011;58938;49.868;8.646;2023-11-21T02:22:53;8.13;;;4.03;;
71207;SDS011;58938;49.868;8.646;2023-11-21T02:27:52;12.57;;;5.78;;
71207;SDS011;58938;49.868;8.646;2023-11-21T02:30:20;7.72;;;4.53;;
71207;SDS011;58938;49.868;8.646;2023-11-21T02:32:46;11.27;;;5.50;;
71207;SDS011;58938;49.868;8.646;2023-11-21T02:35:13;8.57;;;4.67;;
71207;SDS011;58938;49.868;8.646;2023-11-21T02:37:39;8.68;;;4.32;;
71207;SDS011;58938;49.868;8.646;2023-11-21T02:40:06;9.90;;;5.18;;
71207;SDS011;58938;49.868;8.646;2023-11-21T02:42:34;9.70;;;4.63;;
71207;SDS011;58938;49.868;8.646;2023-11-21T02:45:00;9.25;;;4.75;;
71207;SDS011;58938;49.868;8.646;2023-11-21T02:47:26;10.87;;;4.87;;
71207;SDS011;58938;49.868;8.646;2023-11-21T02:49:52;9.25;;;4.60;;
71207;SDS011;58938;49.868;8.646;2023-11-21T02:52:18;10.35;;;5.28;;
71207;SDS011;58938;49.868;8.646;2023-11-21T02:54:44;9.20;;;5.03;;
71207;SDS011;58938;49.868;8.646;2023-11-21T02:57:10;9.43;;;4.97;;
71207;SDS011;58938;49.868;8.646;2023-11-21T02:59:36;12.65;;;5.55;;
71207;SDS011;58938;49.868;8.646;2023-11-21T03:02:02;13.73;;;4.88;;
71207;SDS011;58938;49.868;8.646;2023-11-21T03:04:28;11.33;;;4.60;;
71207;SDS011;58938;49.868;8.646;2023-11-21T03:06:54;9.70;;;4.93;;
71207;SDS011;58938;49.868;8.646;2023-11-21T03:09:20;11.63;;;5.25;;
71207;SDS011;58938;49.868;8.646;2023-11-21T03:11:46;9.65;;;4.70;;
71207;SDS011;58938;49.868;8.646;2023-11-21T03:14:12;9.07;;;4.83;;
71207;SDS011;58938;49.868;8.646;2023-11-21T03:16:38;10.30;;;5.22;;
71207;SDS011;58938;49.868;8.646;2023-11-21T03:19:04;10.77;;;5.10;;
71207;SDS011;58938;49.868;8.646;2023-11-21T03:21:30;9.77;;;5.35;;
71207;SDS011;58938;49.868;8.646;2023-11-21T03:23:56;15.65;;;5.97;;
71207;SDS011;58938;49.868;8.646;2023-11-21T03:26:22;12.23;;;5.80;;
71207;SDS011;58938;49.868;8.646;2023-11-21T03:28:48;13.70;;;6.30;;
71207;SDS011;58938;49.868;8.646;2023-11-21T03:31:15;10.50;;;5.32;;
71207;SDS011;58938;49.868;8.646;2023-11-21T03:33:42;12.63;;;5.60;;
71207;SDS011;58938;49.868;8.646;2023-11-21T03:36:08;10.03;;;5.03;;
71207;SDS011;58938;49.868;8.646;2023-11-21T03:38:34;12.95;;;6.00;;
71207;SDS011;58938;49.868;8.646;2023-11-21T03:41:00;10.00;;;5.35;;
71207;SDS011;58938;49.868;8.646;2023-11-21T03:43:27;12.70;;;6.10;;
71207;SDS011;58938;49.868;8.646;2023-11-21T03:45:53;11.40;;;5.27;;
71207;SDS011;58938;49.868;8.646;2023-11-21T03:48:19;11.18;;;5.65;;
71207;SDS011;58938;49.868;8.646;2023-11-21T03:50:45;11.25;;;5.50;;
71207;SDS011;58938;49.868;8.646;2023-11-21T03:53:12;9.23;;;5.53;;
71207;SDS011;58938;49.868;8.646;2023-11-21T03:55:38;12.20;;;5.13;;
71207;SDS011;58938;49.868;8.646;2023-11-21T03:58:04;11.27;;;6.10;;
71207;SDS011;58938;49.868;8.646;2023-11-21T04:00:30;11.85;;;5.78;;
71207;SDS011;58938;49.868;8.646;2023-11-21T04:02:56;12.97;;;5.90;;
71207;SDS011;58938;49.868;8.646;2023-11-21T04:05:22;14.55;;;6.22;;
71207;SDS011;58938;49.868;8.646;2023-11-21T04:07:49;13.88;;;6.50;;
71207;SDS011;58938;49.868;8.646;2023-11-21T04:10:16;13.93;;;6.60;;
71207;SDS011;58938;49.868;8.646;2023-11-21T04:12:42;15.65;;;7.18;;
71207;SDS011;58938;49.868;8.646;2023-11-21T04:15:08;14.43;;;7.30;;
71207;SDS011;58938;49.868;8.646;2023-11-21T04:17:34;13.07;;;7.22;;
71207;SDS011;58938;49.868;8.646;2023-11-21T04:20:02;16.27;;;7.60;;
71207;SDS011;58938;49.868;8.646;2023-11-21T04:22:28;16.92;;;8.40;;
71207;SDS011;58938;49.868;8.646;2023-11-21T04:24:54;12.23;;;8.13;;
71207;SDS011;58938;49.868;8.646;2023-11-21T04:27:20;13.10;;;7.50;;
71207;SDS011;58938;49.868;8.646;2023-11-21T04:29:47;14.02;;;7.80;;
71207;SDS011;58938;49.868;8.646;2023-11-21T04:32:13;13.43;;;7.97;;
71207;SDS011;58938;49.868;8.646;2023-11-21T04:34:38;15.30;;;9.17;;
71207;SDS011;58938;49.868;8.646;2023-11-21T04:37:04;15.07;;;8.93;;
71207;SDS011;58938;49.868;8.646;2023-11-21T04:39:31;14.43;;;8.88;;
71207;SDS011;58938;49.868;8.646;2023-11-21T04:41:57;16.45;;;8.63;;
71207;SDS011;58938;49.868;8.646;2023-11-21T04:44:23;13.87;;;8.13;;
71207;SDS011;58938;49.868;8.646;2023-11-21T04:46:49;14.65;;;8.32;;
71207;SDS011;58938;49.868;8.646;2023-11-21T04:49:15;14.45;;;6.85;;
71207;SDS011;58938;49.868;8.646;2023-11-21T04:51:41;14.43;;;8.27;;
71207;SDS011;58938;49.868;8.646;2023-11-21T04:54:07;14.70;;;7.80;;
71207;SDS011;58938;49.868;8.646;2023-11-21T04:56:33;16.33;;;8.25;;
71207;SDS011;58938;49.868;8.646;2023-11-21T04:58:58;18.95;;;8.88;;
71207;SDS011;58938;49.868;8.646;2023-11-21T05:01:24;16.10;;;8.73;;
71207;SDS011;58938;49.868;8.646;2023-11-21T05:03:51;15.82;;;8.70;;
71207;SDS011;58938;49.868;8.646;2023-11-21T05:06:17;17.73;;;9.35;;
71207;SDS011;58938;49.868;8.646;2023-11-21T05:08:43;15.40;;;9.65;;
71207;SDS011;58938;49.868;8.646;2023-11-21T05:11:09;16.50;;;8.70;;
71207;SDS011;58938;49.868;8.646;2023-11-21T05:13:38;16.80;;;9.15;;
71207;SDS011;58938;49.868;8.646;2023-11-21T05:16:04;15.77;;;7.97;;
71207;SDS011;58938;49.868;8.646;2023-11-21T05:18:32;16.25;;;8.93;;
71207;SDS011;58938;49.868;8.646;2023-11-21T05:20:59;17.08;;;8.40;;
71207;SDS011;58938;49.868;8.646;2023-11-21T05:23:25;16.43;;;8.40;;
71207;SDS011;58938;49.868;8.646;2023-11-21T05:25:51;15.05;;;7.88;;
71207;SDS011;58938;49.868;8.646;2023-11-21T05:28:17;15.85;;;7.53;;
71207;SDS011;58938;49.868;8.646;2023-11-21T05:30:43;13.10;;;7.13;;
71207;SDS011;58938;49.868;8.646;2023-11-21T05:33:09;10.13;;;5.97;;
71207;SDS011;58938;49.868;8.646;2023-11-21T05:35:35;10.23;;;5.38;;
71207;SDS011;58938;49.868;8.646;2023-11-21T05:38:01;11.43;;;5.40;;
71207;SDS011;58938;49.868;8.646;2023-11-21T05:40:27;8.67;;;4.30;;
71207;SDS011;58938;49.868;8.646;2023-11-21T05:42:55;7.28;;;4.30;;
71207;SDS011;58938;49.868;8.646;2023-11-21T05:45:21;10.45;;;5.65;;
71207;SDS011;58938;49.868;8.646;2023-11-21T05:47:47;6.60;;;3.45;;
71207;SDS011;58938;49.868;8.646;2023-11-21T05:50:13;6.10;;;3.33;;
71207;SDS011;58938;49.868;8.646;2023-11-21T05:52:40;7.40;;;3.93;;
71207;SDS011;58938;49.868;8.646;2023-11-21T05:55:06;6.60;;;2.95;;
71207;SDS011;58938;49.868;8.646;2023-11-21T05:57:38;7.25;;;3.25;;
71207;SDS011;58938;49.868;8.646;2023-11-21T06:00:08;5.28;;;3.15;;
71207;SDS011;58938;49.868;8.646;2023-11-21T06:02:45;5.40;;;2.75;;
71207;SDS011;58938;49.868;8.646;2023-11-21T06:05:11;5.30;;;3.07;;
71207;SDS011;58938;49.868;8.646;2023-11-21T06:07:37;5.80;;;2.97;;
71207;SDS011;58938;49.868;8.646;2023-11-21T06:10:05;4.43;;;2.47;;
71207;SDS011;58938;49.868;8.646;2023-11-21T06:12:34;5.90;;;2.75;;
71207;SDS011;58938;49.868;8.646;2023-11-21T06:15:04;5.93;;;3.00;;
71207;SDS011;58938;49.868;8.646;2023-11-21T06:17:32;4.83;;;2.67;;
71207;SDS011;58938;49.868;8.646;2023-11-21T06:20:01;5.78;;;3.03;;
71207;SDS011;58938;49.868;8.646;2023-11-21T06:22:28;5.53;;;2.50;;
71207;SDS011;58938;49.868;8.646;2023-11-21T06:24:55;7.18;;;2.60;;
71207;SDS011;58938;49.868;8.646;2023-11-21T06:27:22;5.18;;;2.95;;
71207;SDS011;58938;49.868;8.646;2023-11-21T06:29:49;4.20;;;2.60;;
71207;SDS011;58938;49.868;8.646;2023-11-21T06:32:15;4.55;;;2.40;;
71207;SDS011;58938;49.868;8.646;2023-11-21T06:34:41;7.20;;;2.35;;
71207;SDS011;58938;49.868;8.646;2023-11-21T06:37:08;5.40;;;2.67;;
71207;SDS011;58938;49.868;8.646;2023-11-21T06:39:34;4.27;;;1.77;;
71207;SDS011;58938;49.868;8.646;2023-11-21T06:42:00;4.82;;;2.60;;
71207;SDS011;58938;49.868;8.646;2023-11-21T06:44:26;4.90;;;2.47;;
71207;SDS011;58938;49.868;8.646;2023-11-21T06:46:52;6.60;;;2.83;;
71207;SDS011;58938;49.868;8.646;2023-11-21T06:49:19;4.97;;;2.75;;
71207;SDS011;58938;49.868;8.646;2023-11-21T06:51:45;5.27;;;3.47;;
71207;SDS011;58938;49.868;8.646;2023-11-21T06:54:11;5.53;;;2.65;;
71207;SDS011;58938;49.868;8.646;2023-11-21T06:56:38;5.25;;;2.92;;
71207;SDS011;58938;49.868;8.646;2023-11-21T06:59:04;5.80;;;3.25;;
71207;SDS011;58938;49.868;8.646;2023-11-21T07:01:31;5.93;;;3.42;;
71207;SDS011;58938;49.868;8.646;2023-11-21T07:04:03;5.10;;;3.13;;
71207;SDS011;58938;49.868;8.646;2023-11-21T07:06:30;5.60;;;3.40;;
71207;SDS011;58938;49.868;8.646;2023-11-21T07:08:56;7.47;;;3.42;;
71207;SDS011;58938;49.868;8.646;2023-11-21T07:11:22;7.20;;;3.72;;
71207;SDS011;58938;49.868;8.646;2023-11-21T07:13:48;5.50;;;3.47;;
71207;SDS011;58938;49.868;8.646;2023-11-21T07:16:14;10.30;;;3.78;;
71207;SDS011;58938;49.868;8.646;2023-11-21T07:18:40;6.25;;;3.28;;
71207;SDS011;58938;49.868;8.646;2023-11-21T07:21:06;7.43;;;3.92;;
71207;SDS011;58938;49.868;8.646;2023-11-21T07:23:33;12.37;;;3.90;;
71207;SDS011;58938;49.868;8.646;2023-11-21T07:25:59;7.13;;;3.42;;
71207;SDS011;58938;49.868;8.646;2023-11-21T07:28:25;8.35;;;3.70;;
71207;SDS011;58938;49.868;8.646;2023-11-21T07:30:51;8.40;;;4.63;;
71207;SDS011;58938;49.868;8.646;2023-11-21T07:33:17;7.87;;;3.50;;
71207;SDS011;58938;49.868;8.646;2023-11-21T07:35:43;7.75;;;4.00;;
71207;SDS011;58938;49.868;8.646;2023-11-21T07:38:09;9.75;;;4.22;;
71207;SDS011;58938;49.868;8.646;2023-11-21T07:40:35;8.35;;;4.18;;
71207;SDS011;58938;49.868;8.646;2023-11-21T07:43:01;9.37;;;4.00;;
71207;SDS011;58938;49.868;8.646;2023-11-21T07:45:27;13.18;;;5.97;;
71207;SDS011;58938;49.868;8.646;2023-11-21T07:47:53;10.35;;;5.00;;
71207;SDS011;58938;49.868;8.646;2023-11-21T07:50:20;12.57;;;5.47;;
71207;SDS011;58938;49.868;8.646;2023-11-21T07:52:46;11.75;;;5.63;;
71207;SDS011;58938;49.868;8.646;2023-11-21T07:55:12;11.50;;;5.47;;
71207;SDS011;58938;49.868;8.646;2023-11-21T07:57:38;13.60;;;5.50;;
71207;SDS011;58938;49.868;8.646;2023-11-21T08:00:05;12.60;;;7.00;;
71207;SDS011;58938;49.868;8.646;2023-11-21T08:02:34;14.63;;;5.43;;
71207;SDS011;58938;49.868;8.646;2023-11-21T08:05:00;13.43;;;6.05;;
71207;SDS011;58938;49.868;8.646;2023-11-21T08:07:26;15.68;;;6.38;;
71207;SDS011;58938;49.868;8.646;2023-11-21T08:09:52;13.07;;;6.57;;
71207;SDS011;58938;49.868;8.646;2023-11-21T08:12:18;14.33;;;7.23;;
71207;SDS011;58938;49.868;8.646;2023-11-21T08:14:45;15.18;;;7.10;;
71207;SDS011;58938;49.868;8.646;2023-11-21T08:17:11;14.98;;;7.13;;
71207;SDS011;58938;49.868;8.646;2023-11-21T08:19:37;14.90;;;6.88;;
71207;SDS011;58938;49.868;8.646;2023-11-21T08:22:03;16.33;;;7.53;;
71207;SDS011;58938;49.868;8.646;2023-11-21T08:24:29;16.73;;;7.80;;
71207;SDS011;58938;49.868;8.646;2023-11-21T08:26:56;16.85;;;8.00;;
71207;SDS011;58938;49.868;8.646;2023-11-21T08:29:22;16.77;;;8.07;;
71207;SDS011;58938;49.868;8.646;2023-11-21T08:31:48;14.60;;;8.05;;
71207;SDS011;58938;49.868;8.646;2023-11-21T08:34:14;19.10;;;8.30;;
71207;SDS011;58938;49.868;8.646;2023-11-21T08:36:43;13.68;;;7.28;;
71207;SDS011;58938;49.868;8.646;2023-11-21T08:39:10;15.27;;;7.65;;
71207;SDS011;58938;49.868;8.646;2023-11-21T08:41:38;17.85;;;8.02;;
71207;SDS011;58938;49.868;8.646;2023-11-21T08:44:04;14.17;;;7.77;;
71207;SDS011;58938;49.868;8.646;2023-11-21T08:46:33;18.67;;;7.68;;
71207;SDS011;58938;49.868;8.646;2023-11-21T08:49:00;18.80;;;7.47;;
71207;SDS011;58938;49.868;8.646;2023-11-21T08:51:26;17.98;;;6.90;;
71207;SDS011;58938;49.868;8.646;2023-11-21T08:53:52;16.95;;;6.97;;
71207;SDS011;58938;49.868;8.646;2023-11-21T08:56:18;13.67;;;6.93;;
71207;SDS011;58938;49.868;8.646;2023-11-21T08:58:45;14.32;;;6.97;;
71207;SDS011;58938;49.868;8.646;2023-11-21T09:01:12;14.57;;;6.28;;
71207;SDS011;58938;49.868;8.646;2023-11-21T09:03:38;13.18;;;5.93;;
71207;SDS011;58938;49.868;8.646;2023-11-21T09:06:04;12.03;;;5.83;;
71207;SDS011;58938;49.868;8.646;2023-11-21T09:08:30;14.57;;;6.15;;
71207;SDS011;58938;49.868;8.646;2023-11-21T09:10:57;16.02;;;6.38;;
71207;SDS011;58938;49.868;8.646;2023-11-21T09:13:22;14.15;;;6.43;;
71207;SDS011;58938;49.868;8.646;2023-11-21T09:15:50;12.43;;;6.20;;
71207;SDS011;58938;49.868;8.646;2023-11-21T09:18:16;10.93;;;5.03;;
71207;SDS011;58938;49.868;8.646;2023-11-21T09:20:42;12.40;;;4.75;;
71207;SDS011;58938;49.868;8.646;2023-11-21T09:23:11;14.02;;;6.18;;
71207;SDS011;58938;49.868;8.646;2023-11-21T09:25:37;10.68;;;5.03;;
71207;SDS011;58938;49.868;8.646;2023-11-21T09:28:04;10.48;;;4.50;;
71207;SDS011;58938;49.868;8.646;2023-11-21T09:30:34;11.17;;;5.03;;
71207;SDS011;58938;49.868;8.646;2023-11-21T09:33:01;9.05;;;5.13;;
71207;SDS011;58938;49.868;8.646;2023-11-21T09:35:27;10.88;;;4.50;;
71207;SDS011;58938;49.868;8.646;2023-11-21T09:37:53;8.25;;;4.00;;
71207;SDS011;58938;49.868;8.646;2023-11-21T09:40:20;11.80;;;4.90;;
71207;SDS011;58938;49.868;8.646;2023-11-21T09:42:56;10.47;;;4.80;;
71207;SDS011;58938;49.868;8.646;2023-11-21T09:47:49;9.88;;;4.68;;
71207;SDS011;58938;49.868;8.646;2023-11-21T09:50:16;8.82;;;4.63;;
71207;SDS011;58938;49.868;8.646;2023-11-21T09:55:29;12.20;;;5.47;;
71207;SDS011;58938;49.868;8.646;2023-11-21T09:58:00;13.15;;;5.57;;
71207;SDS011;58938;49.868;8.646;2023-11-21T10:00:28;12.25;;;5.93;;
71207;SDS011;58938;49.868;8.646;2023-11-21T10:02:55;12.10;;;5.95;;
71207;SDS011;58938;49.868;8.646;2023-11-21T10:05:23;14.13;;;6.23;;
71207;SDS011;58938;49.868;8.646;2023-11-21T10:07:49;14.50;;;5.72;;
71207;SDS011;58938;49.868;8.646;2023-11-21T10:10:17;10.68;;;5.45;;
71207;SDS011;58938;49.868;8.646;2023-11-21T10:12:44;11.65;;;5.88;;
71207;SDS011;58938;49.868;8.646;2023-11-21T10:15:14;14.88;;;6.68;;
71207;SDS011;58938;49.868;8.646;2023-11-21T10:17:41;12.33;;;6.27;;
71207;SDS011;58938;49.868;8.646;2023-11-21T10:20:13;15.15;;;6.80;;
71207;SDS011;58938;49.868;8.646;2023-11-21T10:22:42;13.10;;;5.68;;
71207;SDS011;58938;49.868;8.646;2023-11-21T10:25:12;12.55;;;5.72;;
71207;SDS011;58938;49.868;8.646;2023-11-21T10:27:41;10.10;;;6.10;;
71207;SDS011;58938;49.868;8.646;2023-11-21T10:30:08;14.20;;;6.53;;
71207;SDS011;58938;49.868;8.646;2023-11-21T10:32:37;13.23;;;5.93;;
71207;SDS011;58938;49.868;8.646;2023-11-21T10:35:03;12.45;;;6.57;;
71207;SDS011;58938;49.868;8.646;2023-11-21T10:37:34;13.93;;;5.95;;
71207;SDS011;58938;49.868;8.646;2023-11-21T10:40:00;12.45;;;6.68;;
71207;SDS011;58938;49.868;8.646;2023-11-21T10:42:26;12.13;;;5.93;;
71207;SDS011;58938;49.868;8.646;2023-11-21T10:44:53;12.95;;;5.40;;
71207;SDS011;58938;49.868;8.646;2023-11-21T10:47:19;10.60;;;5.60;;
71207;SDS011;58938;49.868;8.646;2023-11-21T10:49:51;12.48;;;5.93;;
71207;SDS011;58938;49.868;8.646;2023-11-21T10:52:20;13.90;;;5.57;;
71207;SDS011;58938;49.868;8.646;2023-11-21T10:54:46;11.48;;;5.45;;
71207;SDS011;58938;49.868;8.646;2023-11-21T10:57:13;12.07;;;5.20;;
71207;SDS011;58938;49.868;8.646;2023-11-21T10:59:40;13.38;;;6.05;;
71207;SDS011;58938;49.868;8.646;2023-11-21T11:02:18;11.88;;;5.93;;
71207;SDS011;58938;49.868;8.646;2023-11-21T11:04:48;11.33;;;5.47;;
71207;SDS011;58938;49.868;8.646;2023-11-21T11:07:14;11.73;;;5.57;;
71207;SDS011;58938;49.868;8.646;2023-11-21T11:09:44;16.05;;;6.40;;
71207;SDS011;58938;49.868;8.646;2023-11-21T11:12:10;11.30;;;4.55;;
71207;SDS011;58938;49.868;8.646;2023-11-21T11:14:38;12.20;;;6.18;;
71207;SDS011;58938;49.868;8.646;2023-11-21T11:17:06;15.63;;;5.37;;
71207;SDS011;58938;49.868;8.646;2023-11-21T11:19:34;13.45;;;6.70;;
71207;SDS011;58938;49.868;8.646;2023-11-21T11:22:34;11.95;;;6.13;;
71207;SDS011;58938;49.868;8.646;2023-11-21T11:25:14;14.40;;;6.32;;
71207;SDS011;58938;49.868;8.646;2023-11-21T11:27:48;15.38;;;6.03;;
71207;SDS011;58938;49.868;8.646;2023-11-21T11:30:22;11.77;;;5.63;;
71207;SDS011;58938;49.868;8.646;2023-11-21T11:33:02;10.48;;;4.90;;
71207;SDS011;58938;49.868;8.646;2023-11-21T11:38:04;9.32;;;4.22;;
71207;SDS011;58938;49.868;8.646;2023-11-21T11:40:46;18.13;;;11.63;;
71207;SDS011;58938;49.868;8.646;2023-11-21T11:43:12;7.90;;;4.03;;
71207;SDS011;58938;49.868;8.646;2023-11-21T11:45:38;10.30;;;4.10;;
71207;SDS011;58938;49.868;8.646;2023-11-21T11:48:07;11.18;;;4.60;;
71207;SDS011;58938;49.868;8.646;2023-11-21T11:50:33;8.52;;;3.90;;
71207;SDS011;58938;49.868;8.646;2023-11-21T11:53:13;8.73;;;4.38;;
71207;SDS011;58938;49.868;8.646;2023-11-21T11:55:39;8.77;;;3.87;;
71207;SDS011;58938;49.868;8.646;2023-11-21T11:58:05;8.18;;;4.20;;
71207;SDS011;58938;49.868;8.646;2023-11-21T12:03:01;10.55;;;3.83;;
71207;SDS011;58938;49.868;8.646;2023-11-21T12:05:33;7.75;;;3.80;;
71207;SDS011;58938;49.868;8.646;2023-11-21T12:08:10;8.10;;;3.90;;
71207;SDS011;58938;49.868;8.646;2023-11-21T12:10:37;8.35;;;3.95;;
71207;SDS011;58938;49.868;8.646;2023-11-21T12:13:08;10.45;;;4.80;;
71207;SDS011;58938;49.868;8.646;2023-11-21T12:15:35;9.52;;;4.35;;
71207;SDS011;58938;49.868;8.646;2023-11-21T12:18:02;14.23;;;5.10;;
71207;SDS011;58938;49.868;8.646;2023-11-21T12:20:31;10.50;;;4.83;;
71207;SDS011;58938;49.868;8.646;2023-11-21T12:23:03;9.23;;;4.10;;
71207;SDS011;58938;49.868;8.646;2023-11-21T12:25:30;9.80;;;4.35;;
71207;SDS011;58938;49.868;8.646;2023-11-21T12:27:57;13.48;;;4.80;;
71207;SDS011;58938;49.868;8.646;2023-11-21T12:30:25;13.38;;;4.40;;
71207;SDS011;58938;49.868;8.646;2023-11-21T12:32:53;10.00;;;4.50;;
71207;SDS011;58938;49.868;8.646;2023-11-21T12:35:21;10.30;;;4.45;;
71207;SDS011;58938;49.868;8.646;2023-11-21T12:37:47;11.13;;;4.70;;
71207;SDS011;58938;49.868;8.646;2023-11-21T12:40:14;12.68;;;4.82;;
71207;SDS011;58938;49.868;8.646;2023-11-21T12:42:41;10.95;;;4.90;;
71207;SDS011;58938;49.868;8.646;2023-11-21T12:47:34;9.38;;;4.20;;
71207;SDS011;58938;49.868;8.646;2023-11-21T12:50:02;9.27;;;4.35;;
71207;SDS011;58938;49.868;8.646;2023-11-21T12:52:28;9.65;;;4.28;;
71207;SDS011;58938;49.868;8.646;2023-11-21T12:54:54;10.20;;;4.93;;
71207;SDS011;58938;49.868;8.646;2023-11-21T12:57:21;9.05;;;3.92;;
71207;SDS011;58938;49.868;8.646;2023-11-21T12:59:53;10.48;;;4.80;;
71207;SDS011;58938;49.868;8.646;2023-11-21T13:02:22;11.15;;;4.43;;
71207;SDS011;58938;49.868;8.646;2023-11-21T13:04:53;9.52;;;4.50;;
71207;SDS011;58938;49.868;8.646;2023-11-21T13:07:19;8.57;;;4.43;;
71207;SDS011;58938;49.868;8.646;2023-11-21T13:09:47;7.53;;;3.65;;
71207;SDS011;58938;49.868;8.646;2023-11-21T13:12:13;13.55;;;5.20;;
71207;SDS011;58938;49.868;8.646;2023-11-21T13:14:43;11.20;;;4.63;;
71207;SDS011;58938;49.868;8.646;2023-11-21T13:17:09;10.63;;;4.73;;
71207;SDS011;58938;49.868;8.646;2023-11-21T13:19:35;9.68;;;5.20;;
71207;SDS011;58938;49.868;8.646;2023-11-21T13:22:01;8.10;;;4.75;;
71207;SDS011;58938;49.868;8.646;2023-11-21T13:24:29;11.02;;;5.07;;
71207;SDS011;58938;49.868;8.646;2023-11-21T13:26:55;13.82;;;4.95;;
71207;SDS011;58938;49.868;8.646;2023-11-21T13:29:22;11.50;;;4.77;;
71207;SDS011;58938;49.868;8.646;2023-11-21T13:31:50;11.55;;;4.35;;
71207;SDS011;58938;49.868;8.646;2023-11-21T13:34:18;15.55;;;5.45;;
71207;SDS011;58938;49.868;8.646;2023-11-21T13:36:47;12.15;;;4.95;;
71207;SDS011;58938;49.868;8.646;2023-11-21T13:39:13;10.55;;;5.07;;
71207;SDS011;58938;49.868;8.646;2023-11-21T13:41:41;14.67;;;5.07;;
71207;SDS011;58938;49.868;8.646;2023-11-21T13:44:07;11.38;;;5.28;;
71207;SDS011;58938;49.868;8.646;2023-11-21T13:46:42;10.63;;;5.38;;
71207;SDS011;58938;49.868;8.646;2023-11-21T13:49:10;10.43;;;4.90;;
71207;SDS011;58938;49.868;8.646;2023-11-21T13:51:36;13.70;;;5.10;;
71207;SDS011;58938;49.868;8.646;2023-11-21T13:54:06;12.57;;;5.03;;
71207;SDS011;58938;49.868;8.646;2023-11-21T13:56:35;11.20;;;5.10;;
71207;SDS011;58938;49.868;8.646;2023-11-21T13:59:01;9.43;;;4.85;;
71207;SDS011;58938;49.868;8.646;2023-11-21T14:01:35;20.02;;;5.68;;
71207;SDS011;58938;49.868;8.646;2023-11-21T14:04:16;14.07;;;5.23;;
71207;SDS011;58938;49.868;8.646;2023-11-21T14:06:42;10.90;;;4.63;;
71207;SDS011;58938;49.868;8.646;2023-11-21T14:09:16;14.35;;;5.18;;
71207;SDS011;58938;49.868;8.646;2023-11-21T14:11:51;11.98;;;5.53;;
71207;SDS011;58938;49.868;8.646;2023-11-21T14:14:18;9.73;;;4.07;;
71207;SDS011;58938;49.868;8.646;2023-11-21T14:16:44;9.40;;;4.50;;
71207;SDS011;58938;49.868;8.646;2023-11-21T14:19:10;9.45;;;4.55;;
71207;SDS011;58938;49.868;8.646;2023-11-21T14:21:43;17.00;;;5.20;;
71207;SDS011;58938;49.868;8.646;2023-11-21T14:24:09;14.27;;;4.55;;
71207;SDS011;58938;49.868;8.646;2023-11-21T14:26:37;12.93;;;5.80;;
71207;SDS011;58938;49.868;8.646;2023-11-21T14:29:03;15.02;;;5.40;;
71207;SDS011;58938;49.868;8.646;2023-11-21T14:31:29;10.32;;;5.05;;
71207;SDS011;58938;49.868;8.646;2023-11-21T14:33:57;10.25;;;4.18;;
71207;SDS011;58938;49.868;8.646;2023-11-21T14:36:24;8.63;;;4.78;;
71207;SDS011;58938;49.868;8.646;2023-11-21T14:38:50;13.17;;;4.87;;
71207;SDS011;58938;49.868;8.646;2023-11-21T14:41:16;10.30;;;5.20;;
71207;SDS011;58938;49.868;8.646;2023-11-21T14:43:42;15.27;;;5.38;;
71207;SDS011;58938;49.868;8.646;2023-11-21T14:46:10;13.32;;;5.53;;
71207;SDS011;58938;49.868;8.646;2023-11-21T14:48:39;13.10;;;5.32;;
71207;SDS011;58938;49.868;8.646;2023-11-21T14:51:08;9.87;;;6.00;;
71207;SDS011;58938;49.868;8.646;2023-11-21T14:53:52;15.55;;;7.65;;
71207;SDS011;58938;49.868;8.646;2023-11-21T14:56:22;12.02;;;5.72;;